sensor_id;sensor_type;location;lat;lon;timestamp;P1;durP1;ratioP1;P2;durP2;ratioP2
78197;SDS011;67472;51.554;7.812;2023-04-03T00:02:36;5.18;;;3.33;;
78197;SDS011;67472;51.554;7.812;2023-04-03T00:05:21;7.43;;;4.15;;
78197;SDS011;67472;51.554;7.812;2023-04-03T00:08:06;6.72;;;3.90;;
78197;SDS011;67472;51.554;7.812;2023-04-03T00:10:53;6.85;;;3.85;;
78197;SDS011;67472;51.554;7.812;2023-04-03T00:13:38;8.70;;;4.45;;
78197;SDS011;67472;51.554;7.812;2023-04-03T00:16:23;7.88;;;4.63;;
78197;SDS011;67472;51.554;7.812;2023-04-03T00:19:08;4.93;;;4.38;;
78197;SDS011;67472;51.554;7.812;2023-04-03T00:21:56;7.95;;;4.65;;
78197;SDS011;67472;51.554;7.812;2023-04-03T00:24:41;8.77;;;5.25;;
78197;SDS011;67472;51.554;7.812;2023-04-03T00:27:26;8.30;;;4.82;;
78197;SDS011;67472;51.554;7.812;2023-04-03T00:30:13;7.22;;;4.15;;
78197;SDS011;67472;51.554;7.812;2023-04-03T00:33:00;6.28;;;4.15;;
78197;SDS011;67472;51.554;7.812;2023-04-03T00:35:45;4.82;;;3.92;;
78197;SDS011;67472;51.554;7.812;2023-04-03T00:38:31;4.72;;;4.00;;
78197;SDS011;67472;51.554;7.812;2023-04-03T00:41:16;5.68;;;4.50;;
78197;SDS011;67472;51.554;7.812;2023-04-03T00:44:00;6.15;;;4.85;;
78197;SDS011;67472;51.554;7.812;2023-04-03T00:46:46;6.60;;;4.50;;
78197;SDS011;67472;51.554;7.812;2023-04-03T00:49:31;6.03;;;4.93;;
78197;SDS011;67472;51.554;7.812;2023-04-03T00:52:16;9.80;;;4.80;;
78197;SDS011;67472;51.554;7.812;2023-04-03T00:55:05;10.30;;;4.50;;
78197;SDS011;67472;51.554;7.812;2023-04-03T00:57:52;8.50;;;4.40;;
78197;SDS011;67472;51.554;7.812;2023-04-03T01:00:40;5.05;;;3.85;;
78197;SDS011;67472;51.554;7.812;2023-04-03T01:03:29;7.68;;;3.58;;
78197;SDS011;67472;51.554;7.812;2023-04-03T01:06:18;11.27;;;4.18;;
78197;SDS011;67472;51.554;7.812;2023-04-03T01:09:07;7.05;;;4.13;;
78197;SDS011;67472;51.554;7.812;2023-04-03T01:11:52;10.07;;;3.88;;
78197;SDS011;67472;51.554;7.812;2023-04-03T01:14:38;4.35;;;3.47;;
78197;SDS011;67472;51.554;7.812;2023-04-03T01:17:30;5.30;;;3.95;;
78197;SDS011;67472;51.554;7.812;2023-04-03T01:23:41;7.43;;;4.70;;
78197;SDS011;67472;51.554;7.812;2023-04-03T01:26:43;6.57;;;3.88;;
78197;SDS011;67472;51.554;7.812;2023-04-03T01:29:29;5.63;;;3.75;;
78197;SDS011;67472;51.554;7.812;2023-04-03T01:32:14;5.72;;;3.70;;
78197;SDS011;67472;51.554;7.812;2023-04-03T01:35:00;6.45;;;3.55;;
78197;SDS011;67472;51.554;7.812;2023-04-03T01:37:45;7.13;;;4.18;;
78197;SDS011;67472;51.554;7.812;2023-04-03T01:40:30;7.00;;;3.80;;
78197;SDS011;67472;51.554;7.812;2023-04-03T01:43:15;5.07;;;3.10;;
78197;SDS011;67472;51.554;7.812;2023-04-03T01:46:00;8.15;;;3.10;;
78197;SDS011;67472;51.554;7.812;2023-04-03T01:48:45;5.47;;;3.50;;
78197;SDS011;67472;51.554;7.812;2023-04-03T01:51:30;8.13;;;4.40;;
78197;SDS011;67472;51.554;7.812;2023-04-03T01:54:15;6.47;;;3.40;;
78197;SDS011;67472;51.554;7.812;2023-04-03T01:57:00;5.15;;;3.30;;
78197;SDS011;67472;51.554;7.812;2023-04-03T01:59:45;5.85;;;2.90;;
78197;SDS011;67472;51.554;7.812;2023-04-03T02:02:30;7.18;;;3.40;;
78197;SDS011;67472;51.554;7.812;2023-04-03T02:05:15;4.22;;;2.70;;
78197;SDS011;67472;51.554;7.812;2023-04-03T02:08:00;4.32;;;3.28;;
78197;SDS011;67472;51.554;7.812;2023-04-03T02:10:47;6.03;;;3.40;;
78197;SDS011;67472;51.554;7.812;2023-04-03T02:13:33;5.65;;;3.40;;
78197;SDS011;67472;51.554;7.812;2023-04-03T02:16:18;5.78;;;3.42;;
78197;SDS011;67472;51.554;7.812;2023-04-03T02:19:03;6.63;;;3.20;;
78197;SDS011;67472;51.554;7.812;2023-04-03T02:21:48;3.15;;;2.85;;
78197;SDS011;67472;51.554;7.812;2023-04-03T02:24:33;8.25;;;3.42;;
78197;SDS011;67472;51.554;7.812;2023-04-03T02:27:18;3.20;;;2.90;;
78197;SDS011;67472;51.554;7.812;2023-04-03T02:30:04;5.68;;;2.75;;
78197;SDS011;67472;51.554;7.812;2023-04-03T02:32:49;4.57;;;2.67;;
78197;SDS011;67472;51.554;7.812;2023-04-03T02:35:34;5.90;;;2.83;;
78197;SDS011;67472;51.554;7.812;2023-04-03T02:38:21;5.50;;;3.22;;
78197;SDS011;67472;51.554;7.812;2023-04-03T02:41:08;4.47;;;3.05;;
78197;SDS011;67472;51.554;7.812;2023-04-03T02:43:54;5.00;;;2.50;;
78197;SDS011;67472;51.554;7.812;2023-04-03T02:46:39;9.45;;;3.05;;
78197;SDS011;67472;51.554;7.812;2023-04-03T02:49:24;6.00;;;2.50;;
78197;SDS011;67472;51.554;7.812;2023-04-03T02:52:09;6.78;;;2.88;;
78197;SDS011;67472;51.554;7.812;2023-04-03T02:54:55;5.88;;;2.33;;
78197;SDS011;67472;51.554;7.812;2023-04-03T02:57:40;6.93;;;2.65;;
78197;SDS011;67472;51.554;7.812;2023-04-03T03:00:25;5.78;;;2.40;;
78197;SDS011;67472;51.554;7.812;2023-04-03T03:03:10;5.10;;;2.40;;
78197;SDS011;67472;51.554;7.812;2023-04-03T03:06:05;8.93;;;2.40;;
78197;SDS011;67472;51.554;7.812;2023-04-03T03:08:52;3.05;;;2.40;;
78197;SDS011;67472;51.554;7.812;2023-04-03T03:11:37;6.05;;;2.90;;
78197;SDS011;67472;51.554;7.812;2023-04-03T03:14:22;4.07;;;3.00;;
78197;SDS011;67472;51.554;7.812;2023-04-03T03:17:07;5.50;;;3.47;;
78197;SDS011;67472;51.554;7.812;2023-04-03T03:19:52;8.63;;;3.35;;
78197;SDS011;67472;51.554;7.812;2023-04-03T03:22:37;9.13;;;3.42;;
78197;SDS011;67472;51.554;7.812;2023-04-03T03:25:22;4.72;;;3.17;;
78197;SDS011;67472;51.554;7.812;2023-04-03T03:28:07;7.05;;;3.28;;
78197;SDS011;67472;51.554;7.812;2023-04-03T03:30:52;4.20;;;2.92;;
78197;SDS011;67472;51.554;7.812;2023-04-03T03:33:38;7.85;;;3.33;;
78197;SDS011;67472;51.554;7.812;2023-04-03T03:36:23;5.45;;;2.80;;
78197;SDS011;67472;51.554;7.812;2023-04-03T03:39:08;7.00;;;2.45;;
78197;SDS011;67472;51.554;7.812;2023-04-03T03:41:54;5.28;;;2.33;;
78197;SDS011;67472;51.554;7.812;2023-04-03T03:44:39;4.05;;;2.17;;
78197;SDS011;67472;51.554;7.812;2023-04-03T03:47:24;5.95;;;3.15;;
78197;SDS011;67472;51.554;7.812;2023-04-03T03:50:10;4.32;;;2.67;;
78197;SDS011;67472;51.554;7.812;2023-04-03T03:52:55;8.75;;;2.30;;
78197;SDS011;67472;51.554;7.812;2023-04-03T03:55:40;3.08;;;2.28;;
78197;SDS011;67472;51.554;7.812;2023-04-03T03:58:24;5.85;;;2.53;;
78197;SDS011;67472;51.554;7.812;2023-04-03T04:01:09;6.22;;;2.47;;
78197;SDS011;67472;51.554;7.812;2023-04-03T04:04:01;4.55;;;2.75;;
78197;SDS011;67472;51.554;7.812;2023-04-03T04:06:49;6.15;;;2.72;;
78197;SDS011;67472;51.554;7.812;2023-04-03T04:09:35;9.60;;;3.13;;
78197;SDS011;67472;51.554;7.812;2023-04-03T04:12:20;6.32;;;2.70;;
78197;SDS011;67472;51.554;7.812;2023-04-03T04:15:05;4.40;;;2.70;;
78197;SDS011;67472;51.554;7.812;2023-04-03T04:17:51;5.57;;;3.10;;
78197;SDS011;67472;51.554;7.812;2023-04-03T04:20:37;7.70;;;2.53;;
78197;SDS011;67472;51.554;7.812;2023-04-03T04:23:26;5.75;;;2.53;;
78197;SDS011;67472;51.554;7.812;2023-04-03T04:26:11;4.75;;;2.60;;
78197;SDS011;67472;51.554;7.812;2023-04-03T04:28:57;7.07;;;2.28;;
78197;SDS011;67472;51.554;7.812;2023-04-03T04:31:43;4.13;;;2.85;;
78197;SDS011;67472;51.554;7.812;2023-04-03T04:34:28;3.38;;;2.25;;
78197;SDS011;67472;51.554;7.812;2023-04-03T04:37:13;6.13;;;2.03;;
78197;SDS011;67472;51.554;7.812;2023-04-03T04:39:58;5.65;;;2.78;;
78197;SDS011;67472;51.554;7.812;2023-04-03T04:42:49;13.18;;;2.75;;
78197;SDS011;67472;51.554;7.812;2023-04-03T04:45:34;7.35;;;2.78;;
78197;SDS011;67472;51.554;7.812;2023-04-03T04:48:19;3.55;;;2.25;;
78197;SDS011;67472;51.554;7.812;2023-04-03T04:51:04;4.70;;;2.95;;
78197;SDS011;67472;51.554;7.812;2023-04-03T04:53:52;10.90;;;2.80;;
78197;SDS011;67472;51.554;7.812;2023-04-03T04:56:37;3.97;;;2.60;;
78197;SDS011;67472;51.554;7.812;2023-04-03T04:59:22;2.63;;;2.10;;
78197;SDS011;67472;51.554;7.812;2023-04-03T05:02:09;5.22;;;2.35;;
78197;SDS011;67472;51.554;7.812;2023-04-03T05:04:56;3.03;;;2.20;;
78197;SDS011;67472;51.554;7.812;2023-04-03T05:07:45;9.13;;;2.47;;
78197;SDS011;67472;51.554;7.812;2023-04-03T05:10:30;7.60;;;2.13;;
78197;SDS011;67472;51.554;7.812;2023-04-03T05:13:15;6.38;;;2.60;;
78197;SDS011;67472;51.554;7.812;2023-04-03T05:16:00;9.20;;;3.17;;
78197;SDS011;67472;51.554;7.812;2023-04-03T05:18:46;6.53;;;2.47;;
78197;SDS011;67472;51.554;7.812;2023-04-03T05:21:36;7.78;;;3.10;;
78197;SDS011;67472;51.554;7.812;2023-04-03T05:24:26;4.35;;;2.25;;
78197;SDS011;67472;51.554;7.812;2023-04-03T05:27:11;9.70;;;2.88;;
78197;SDS011;67472;51.554;7.812;2023-04-03T05:30:01;7.03;;;2.40;;
78197;SDS011;67472;51.554;7.812;2023-04-03T05:32:47;4.57;;;2.38;;
78197;SDS011;67472;51.554;7.812;2023-04-03T05:35:41;6.05;;;2.40;;
78197;SDS011;67472;51.554;7.812;2023-04-03T05:38:31;5.75;;;2.50;;
78197;SDS011;67472;51.554;7.812;2023-04-03T05:41:17;10.00;;;3.75;;
78197;SDS011;67472;51.554;7.812;2023-04-03T05:44:04;6.72;;;2.80;;
78197;SDS011;67472;51.554;7.812;2023-04-03T05:46:49;5.63;;;2.30;;
78197;SDS011;67472;51.554;7.812;2023-04-03T05:49:35;5.13;;;2.20;;
78197;SDS011;67472;51.554;7.812;2023-04-03T05:52:21;9.45;;;2.65;;
78197;SDS011;67472;51.554;7.812;2023-04-03T05:55:10;3.08;;;2.17;;
78197;SDS011;67472;51.554;7.812;2023-04-03T05:57:55;8.63;;;2.92;;
78197;SDS011;67472;51.554;7.812;2023-04-03T06:00:40;5.47;;;2.50;;
78197;SDS011;67472;51.554;7.812;2023-04-03T06:03:25;6.70;;;2.78;;
78197;SDS011;67472;51.554;7.812;2023-04-03T06:06:12;6.10;;;2.75;;
78197;SDS011;67472;51.554;7.812;2023-04-03T06:08:58;7.65;;;2.55;;
78197;SDS011;67472;51.554;7.812;2023-04-03T06:11:43;6.28;;;3.50;;
78197;SDS011;67472;51.554;7.812;2023-04-03T06:14:29;6.55;;;2.65;;
78197;SDS011;67472;51.554;7.812;2023-04-03T06:17:14;5.53;;;2.38;;
78197;SDS011;67472;51.554;7.812;2023-04-03T06:20:00;4.70;;;2.03;;
78197;SDS011;67472;51.554;7.812;2023-04-03T06:22:45;5.28;;;2.22;;
78197;SDS011;67472;51.554;7.812;2023-04-03T06:25:30;4.00;;;2.22;;
78197;SDS011;67472;51.554;7.812;2023-04-03T06:28:16;5.53;;;2.65;;
78197;SDS011;67472;51.554;7.812;2023-04-03T06:31:01;5.40;;;2.75;;
78197;SDS011;67472;51.554;7.812;2023-04-03T06:33:46;7.70;;;2.58;;
78197;SDS011;67472;51.554;7.812;2023-04-03T06:36:31;8.23;;;2.75;;
78197;SDS011;67472;51.554;7.812;2023-04-03T06:39:17;7.60;;;2.40;;
78197;SDS011;67472;51.554;7.812;2023-04-03T06:42:07;5.97;;;2.47;;
78197;SDS011;67472;51.554;7.812;2023-04-03T06:45:03;6.32;;;2.55;;
78197;SDS011;67472;51.554;7.812;2023-04-03T06:47:49;6.32;;;2.60;;
78197;SDS011;67472;51.554;7.812;2023-04-03T06:50:34;4.25;;;1.83;;
78197;SDS011;67472;51.554;7.812;2023-04-03T06:53:19;5.10;;;2.45;;
78197;SDS011;67472;51.554;7.812;2023-04-03T06:56:04;6.95;;;2.40;;
78197;SDS011;67472;51.554;7.812;2023-04-03T06:58:50;5.13;;;2.67;;
78197;SDS011;67472;51.554;7.812;2023-04-03T07:01:35;3.45;;;2.20;;
78197;SDS011;67472;51.554;7.812;2023-04-03T07:04:21;4.85;;;2.20;;
78197;SDS011;67472;51.554;7.812;2023-04-03T07:07:06;4.85;;;2.83;;
78197;SDS011;67472;51.554;7.812;2023-04-03T07:09:51;5.75;;;2.75;;
78197;SDS011;67472;51.554;7.812;2023-04-03T07:12:37;3.33;;;2.03;;
78197;SDS011;67472;51.554;7.812;2023-04-03T07:15:22;7.22;;;2.42;;
78197;SDS011;67472;51.554;7.812;2023-04-03T07:18:07;3.03;;;2.25;;
78197;SDS011;67472;51.554;7.812;2023-04-03T07:20:52;7.90;;;2.60;;
78197;SDS011;67472;51.554;7.812;2023-04-03T07:23:37;3.92;;;2.08;;
78197;SDS011;67472;51.554;7.812;2023-04-03T07:26:23;3.80;;;2.13;;
78197;SDS011;67472;51.554;7.812;2023-04-03T07:29:08;6.75;;;2.30;;
78197;SDS011;67472;51.554;7.812;2023-04-03T07:31:53;5.60;;;2.35;;
78197;SDS011;67472;51.554;7.812;2023-04-03T07:34:39;7.70;;;2.50;;
78197;SDS011;67472;51.554;7.812;2023-04-03T07:37:25;5.15;;;2.35;;
78197;SDS011;67472;51.554;7.812;2023-04-03T07:40:11;7.07;;;2.28;;
78197;SDS011;67472;51.554;7.812;2023-04-03T07:42:56;8.68;;;2.20;;
78197;SDS011;67472;51.554;7.812;2023-04-03T07:45:41;10.50;;;1.90;;
78197;SDS011;67472;51.554;7.812;2023-04-03T07:48:27;7.15;;;2.30;;
78197;SDS011;67472;51.554;7.812;2023-04-03T07:51:12;9.32;;;2.10;;
78197;SDS011;67472;51.554;7.812;2023-04-03T07:53:58;3.15;;;1.70;;
78197;SDS011;67472;51.554;7.812;2023-04-03T07:56:43;5.05;;;2.15;;
78197;SDS011;67472;51.554;7.812;2023-04-03T07:59:28;6.75;;;2.15;;
78197;SDS011;67472;51.554;7.812;2023-04-03T08:02:13;5.18;;;1.90;;
78197;SDS011;67472;51.554;7.812;2023-04-03T08:04:58;5.13;;;1.95;;
78197;SDS011;67472;51.554;7.812;2023-04-03T08:07:43;5.95;;;2.20;;
78197;SDS011;67472;51.554;7.812;2023-04-03T08:10:32;8.90;;;2.60;;
78197;SDS011;67472;51.554;7.812;2023-04-03T08:13:17;4.82;;;2.03;;
78197;SDS011;67472;51.554;7.812;2023-04-03T08:16:09;5.80;;;1.90;;
78197;SDS011;67472;51.554;7.812;2023-04-03T08:18:56;2.17;;;1.88;;
78197;SDS011;67472;51.554;7.812;2023-04-03T08:21:41;5.65;;;2.90;;
78197;SDS011;67472;51.554;7.812;2023-04-03T08:24:26;7.53;;;2.17;;
78197;SDS011;67472;51.554;7.812;2023-04-03T08:27:11;5.55;;;2.17;;
78197;SDS011;67472;51.554;7.812;2023-04-03T08:29:56;6.63;;;2.42;;
78197;SDS011;67472;51.554;7.812;2023-04-03T08:32:41;4.70;;;2.20;;
78197;SDS011;67472;51.554;7.812;2023-04-03T08:35:28;4.55;;;1.80;;
78197;SDS011;67472;51.554;7.812;2023-04-03T08:38:12;7.25;;;2.67;;
78197;SDS011;67472;51.554;7.812;2023-04-03T08:41:05;7.55;;;2.15;;
78197;SDS011;67472;51.554;7.812;2023-04-03T08:44:25;5.97;;;2.03;;
78197;SDS011;67472;51.554;7.812;2023-04-03T08:50:19;4.20;;;2.03;;
78197;SDS011;67472;51.554;7.812;2023-04-03T08:53:12;6.28;;;2.30;;
78197;SDS011;67472;51.554;7.812;2023-04-03T08:56:00;4.65;;;2.50;;
78197;SDS011;67472;51.554;7.812;2023-04-03T08:58:55;6.90;;;2.17;;
78197;SDS011;67472;51.554;7.812;2023-04-03T09:01:42;9.90;;;2.10;;
78197;SDS011;67472;51.554;7.812;2023-04-03T09:04:28;5.63;;;1.52;;
78197;SDS011;67472;51.554;7.812;2023-04-03T09:07:20;5.20;;;1.92;;
78197;SDS011;67472;51.554;7.812;2023-04-03T09:10:14;3.88;;;2.17;;
78197;SDS011;67472;51.554;7.812;2023-04-03T09:13:01;7.53;;;2.15;;
78197;SDS011;67472;51.554;7.812;2023-04-03T09:15:51;9.80;;;2.40;;
78197;SDS011;67472;51.554;7.812;2023-04-03T09:18:39;5.38;;;2.08;;
78197;SDS011;67472;51.554;7.812;2023-04-03T09:21:32;4.97;;;2.38;;
78197;SDS011;67472;51.554;7.812;2023-04-03T09:24:21;3.80;;;1.83;;
78197;SDS011;67472;51.554;7.812;2023-04-03T09:27:09;5.22;;;1.60;;
78197;SDS011;67472;51.554;7.812;2023-04-03T09:29:55;5.63;;;2.28;;
78197;SDS011;67472;51.554;7.812;2023-04-03T09:32:43;2.85;;;1.98;;
78197;SDS011;67472;51.554;7.812;2023-04-03T09:35:34;6.13;;;2.00;;
78197;SDS011;67472;51.554;7.812;2023-04-03T09:38:21;2.47;;;1.70;;
78197;SDS011;67472;51.554;7.812;2023-04-03T09:41:10;3.65;;;1.42;;
78197;SDS011;67472;51.554;7.812;2023-04-03T09:44:00;2.90;;;1.30;;
78197;SDS011;67472;51.554;7.812;2023-04-03T09:46:46;3.47;;;2.38;;
78197;SDS011;67472;51.554;7.812;2023-04-03T09:49:30;4.80;;;1.73;;
78197;SDS011;67472;51.554;7.812;2023-04-03T09:52:25;4.47;;;1.60;;
78197;SDS011;67472;51.554;7.812;2023-04-03T09:55:21;4.95;;;1.77;;
78197;SDS011;67472;51.554;7.812;2023-04-03T09:58:24;2.92;;;1.92;;
78197;SDS011;67472;51.554;7.812;2023-04-03T10:04:18;4.72;;;1.90;;
78197;SDS011;67472;51.554;7.812;2023-04-03T10:07:03;2.92;;;1.38;;
78197;SDS011;67472;51.554;7.812;2023-04-03T10:10:18;3.40;;;1.50;;
78197;SDS011;67472;51.554;7.812;2023-04-03T10:13:11;2.60;;;1.40;;
78197;SDS011;67472;51.554;7.812;2023-04-03T10:16:09;5.40;;;1.33;;
78197;SDS011;67472;51.554;7.812;2023-04-03T10:19:03;5.63;;;1.65;;
78197;SDS011;67472;51.554;7.812;2023-04-03T10:22:11;2.13;;;1.52;;
78197;SDS011;67472;51.554;7.812;2023-04-03T10:27:59;2.72;;;1.10;;
78197;SDS011;67472;51.554;7.812;2023-04-03T10:33:46;1.65;;;1.23;;
78197;SDS011;67472;51.554;7.812;2023-04-03T10:36:37;3.28;;;1.23;;
78197;SDS011;67472;51.554;7.812;2023-04-03T10:39:30;1.75;;;1.17;;
78197;SDS011;67472;51.554;7.812;2023-04-03T10:42:29;0.95;;;0.80;;
78197;SDS011;67472;51.554;7.812;2023-04-03T10:45:21;1.35;;;0.88;;
78197;SDS011;67472;51.554;7.812;2023-04-03T10:48:16;2.65;;;1.20;;
78197;SDS011;67472;51.554;7.812;2023-04-03T10:54:53;3.85;;;1.10;;
78197;SDS011;67472;51.554;7.812;2023-04-03T10:57:25;1.42;;;1.20;;
78197;SDS011;67472;51.554;7.812;2023-04-03T11:03:03;3.05;;;1.02;;
78197;SDS011;67472;51.554;7.812;2023-04-03T11:05:53;1.90;;;1.02;;
78197;SDS011;67472;51.554;7.812;2023-04-03T11:08:44;5.22;;;1.65;;
78197;SDS011;67472;51.554;7.812;2023-04-03T11:11:51;2.60;;;1.10;;
78197;SDS011;67472;51.554;7.812;2023-04-03T11:14:40;1.67;;;1.10;;
78197;SDS011;67472;51.554;7.812;2023-04-03T11:17:35;2.75;;;1.20;;
78197;SDS011;67472;51.554;7.812;2023-04-03T11:20:29;1.30;;;1.00;;
78197;SDS011;67472;51.554;7.812;2023-04-03T11:26:19;3.30;;;1.40;;
78197;SDS011;67472;51.554;7.812;2023-04-03T11:29:09;2.67;;;1.13;;
78197;SDS011;67472;51.554;7.812;2023-04-03T11:35:11;3.13;;;1.00;;
78197;SDS011;67472;51.554;7.812;2023-04-03T11:37:57;2.97;;;1.20;;
78197;SDS011;67472;51.554;7.812;2023-04-03T11:40:46;3.67;;;1.50;;
78197;SDS011;67472;51.554;7.812;2023-04-03T11:43:32;1.88;;;0.95;;
78197;SDS011;67472;51.554;7.812;2023-04-03T11:46:18;2.35;;;0.98;;
78197;SDS011;67472;51.554;7.812;2023-04-03T11:49:04;3.25;;;1.50;;
78197;SDS011;67472;51.554;7.812;2023-04-03T11:51:49;1.75;;;1.30;;
78197;SDS011;67472;51.554;7.812;2023-04-03T11:54:36;4.32;;;1.27;;
78197;SDS011;67472;51.554;7.812;2023-04-03T11:58:11;2.03;;;1.17;;
78197;SDS011;67472;51.554;7.812;2023-04-03T12:09:25;4.32;;;1.10;;
78197;SDS011;67472;51.554;7.812;2023-04-03T12:12:35;4.57;;;1.02;;
78197;SDS011;67472;51.554;7.812;2023-04-03T12:15:23;3.90;;;0.95;;
78197;SDS011;67472;51.554;7.812;2023-04-03T12:33:04;5.75;;;1.42;;
78197;SDS011;67472;51.554;7.812;2023-04-03T12:39:04;3.00;;;1.17;;
78197;SDS011;67472;51.554;7.812;2023-04-03T12:48:06;1.83;;;1.13;;
78197;SDS011;67472;51.554;7.812;2023-04-03T12:50:59;2.15;;;0.85;;
78197;SDS011;67472;51.554;7.812;2023-04-03T12:53:45;3.22;;;1.10;;
78197;SDS011;67472;51.554;7.812;2023-04-03T12:56:31;2.53;;;1.08;;
78197;SDS011;67472;51.554;7.812;2023-04-03T12:59:24;1.85;;;1.20;;
78197;SDS011;67472;51.554;7.812;2023-04-03T13:02:20;3.13;;;2.00;;
78197;SDS011;67472;51.554;7.812;2023-04-03T13:05:18;5.57;;;1.30;;
78197;SDS011;67472;51.554;7.812;2023-04-03T13:08:09;1.80;;;1.10;;
78197;SDS011;67472;51.554;7.812;2023-04-03T13:11:04;3.30;;;1.00;;
78197;SDS011;67472;51.554;7.812;2023-04-03T13:14:00;2.30;;;1.17;;
78197;SDS011;67472;51.554;7.812;2023-04-03T13:17:09;3.75;;;1.00;;
78197;SDS011;67472;51.554;7.812;2023-04-03T13:19:55;2.15;;;1.00;;
78197;SDS011;67472;51.554;7.812;2023-04-03T13:23:00;2.25;;;1.10;;
78197;SDS011;67472;51.554;7.812;2023-04-03T13:25:49;3.50;;;1.27;;
78197;SDS011;67472;51.554;7.812;2023-04-03T13:28:35;4.72;;;1.30;;
78197;SDS011;67472;51.554;7.812;2023-04-03T13:31:25;2.60;;;1.38;;
78197;SDS011;67472;51.554;7.812;2023-04-03T13:34:18;3.00;;;1.23;;
78197;SDS011;67472;51.554;7.812;2023-04-03T13:37:04;3.13;;;1.27;;
78197;SDS011;67472;51.554;7.812;2023-04-03T13:39:59;3.45;;;1.25;;
78197;SDS011;67472;51.554;7.812;2023-04-03T13:43:00;3.45;;;1.10;;
78197;SDS011;67472;51.554;7.812;2023-04-03T13:48:45;3.10;;;1.20;;
78197;SDS011;67472;51.554;7.812;2023-04-03T13:51:32;4.43;;;1.38;;
78197;SDS011;67472;51.554;7.812;2023-04-03T13:54:34;2.45;;;1.20;;
78197;SDS011;67472;51.554;7.812;2023-04-03T13:57:21;1.38;;;1.00;;
78197;SDS011;67472;51.554;7.812;2023-04-03T14:03:24;2.75;;;1.15;;
78197;SDS011;67472;51.554;7.812;2023-04-03T14:06:16;5.70;;;1.27;;
78197;SDS011;67472;51.554;7.812;2023-04-03T14:09:02;4.95;;;1.15;;
78197;SDS011;67472;51.554;7.812;2023-04-03T14:11:48;2.30;;;1.13;;
78197;SDS011;67472;51.554;7.812;2023-04-03T14:14:36;3.30;;;1.42;;
78197;SDS011;67472;51.554;7.812;2023-04-03T14:17:23;2.88;;;1.50;;
78197;SDS011;67472;51.554;7.812;2023-04-03T14:20:17;3.00;;;1.50;;
78197;SDS011;67472;51.554;7.812;2023-04-03T14:23:05;2.63;;;1.52;;
78197;SDS011;67472;51.554;7.812;2023-04-03T14:25:50;2.10;;;1.38;;
78197;SDS011;67472;51.554;7.812;2023-04-03T14:28:35;2.42;;;1.23;;
78197;SDS011;67472;51.554;7.812;2023-04-03T14:31:21;2.22;;;1.40;;
78197;SDS011;67472;51.554;7.812;2023-04-03T14:34:07;2.25;;;1.42;;
78197;SDS011;67472;51.554;7.812;2023-04-03T14:36:52;3.85;;;1.48;;
78197;SDS011;67472;51.554;7.812;2023-04-03T14:39:37;10.73;;;1.50;;
78197;SDS011;67472;51.554;7.812;2023-04-03T14:42:26;5.28;;;1.48;;
78197;SDS011;67472;51.554;7.812;2023-04-03T14:45:14;3.03;;;1.23;;
78197;SDS011;67472;51.554;7.812;2023-04-03T14:48:00;1.63;;;1.23;;
78197;SDS011;67472;51.554;7.812;2023-04-03T14:50:50;2.95;;;1.40;;
78197;SDS011;67472;51.554;7.812;2023-04-03T14:53:36;3.00;;;1.48;;
78197;SDS011;67472;51.554;7.812;2023-04-03T14:56:26;3.83;;;1.35;;
78197;SDS011;67472;51.554;7.812;2023-04-03T14:59:13;5.70;;;1.45;;
78197;SDS011;67472;51.554;7.812;2023-04-03T15:01:59;1.73;;;1.45;;
78197;SDS011;67472;51.554;7.812;2023-04-03T15:04:44;3.97;;;1.55;;
78197;SDS011;67472;51.554;7.812;2023-04-03T15:07:30;4.60;;;1.50;;
78197;SDS011;67472;51.554;7.812;2023-04-03T15:10:25;3.05;;;1.42;;
78197;SDS011;67472;51.554;7.812;2023-04-03T15:13:11;4.38;;;1.85;;
78197;SDS011;67472;51.554;7.812;2023-04-03T15:15:56;2.35;;;1.20;;
78197;SDS011;67472;51.554;7.812;2023-04-03T15:18:42;3.33;;;1.50;;
78197;SDS011;67472;51.554;7.812;2023-04-03T15:21:28;3.83;;;1.55;;
78197;SDS011;67472;51.554;7.812;2023-04-03T15:24:13;3.65;;;1.85;;
78197;SDS011;67472;51.554;7.812;2023-04-03T15:26:58;2.20;;;1.50;;
78197;SDS011;67472;51.554;7.812;2023-04-03T15:29:45;5.88;;;2.17;;
78197;SDS011;67472;51.554;7.812;2023-04-03T15:32:30;3.95;;;1.35;;
78197;SDS011;67472;51.554;7.812;2023-04-03T15:35:15;3.42;;;1.15;;
78197;SDS011;67472;51.554;7.812;2023-04-03T15:38:01;2.58;;;1.65;;
78197;SDS011;67472;51.554;7.812;2023-04-03T15:40:46;2.63;;;1.80;;
78197;SDS011;67472;51.554;7.812;2023-04-03T15:43:31;3.10;;;1.33;;
78197;SDS011;67472;51.554;7.812;2023-04-03T15:46:18;4.20;;;1.33;;
78197;SDS011;67472;51.554;7.812;2023-04-03T15:49:03;2.38;;;1.52;;
78197;SDS011;67472;51.554;7.812;2023-04-03T15:51:49;2.22;;;1.40;;
78197;SDS011;67472;51.554;7.812;2023-04-03T15:54:33;4.13;;;1.42;;
78197;SDS011;67472;51.554;7.812;2023-04-03T15:57:18;5.32;;;1.50;;
78197;SDS011;67472;51.554;7.812;2023-04-03T16:00:04;3.10;;;1.30;;
78197;SDS011;67472;51.554;7.812;2023-04-03T16:03:02;3.63;;;1.40;;
78197;SDS011;67472;51.554;7.812;2023-04-03T16:05:51;2.15;;;1.40;;
78197;SDS011;67472;51.554;7.812;2023-04-03T16:08:36;2.88;;;1.13;;
78197;SDS011;67472;51.554;7.812;2023-04-03T16:11:21;2.13;;;1.55;;
78197;SDS011;67472;51.554;7.812;2023-04-03T16:14:07;3.63;;;1.33;;
78197;SDS011;67472;51.554;7.812;2023-04-03T16:16:52;4.78;;;1.77;;
78197;SDS011;67472;51.554;7.812;2023-04-03T16:19:36;2.90;;;1.50;;
78197;SDS011;67472;51.554;7.812;2023-04-03T16:22:24;3.28;;;1.20;;
78197;SDS011;67472;51.554;7.812;2023-04-03T16:25:12;3.58;;;2.03;;
78197;SDS011;67472;51.554;7.812;2023-04-03T16:27:57;4.57;;;1.45;;
78197;SDS011;67472;51.554;7.812;2023-04-03T16:30:42;2.65;;;1.65;;
78197;SDS011;67472;51.554;7.812;2023-04-03T16:33:28;4.13;;;1.48;;
78197;SDS011;67472;51.554;7.812;2023-04-03T16:36:14;1.35;;;1.25;;
78197;SDS011;67472;51.554;7.812;2023-04-03T16:38:59;2.92;;;1.30;;
78197;SDS011;67472;51.554;7.812;2023-04-03T16:41:44;2.42;;;1.27;;
78197;SDS011;67472;51.554;7.812;2023-04-03T16:44:29;1.55;;;1.20;;
78197;SDS011;67472;51.554;7.812;2023-04-03T16:47:14;3.08;;;1.35;;
78197;SDS011;67472;51.554;7.812;2023-04-03T16:50:03;2.78;;;1.63;;
78197;SDS011;67472;51.554;7.812;2023-04-03T16:52:49;4.40;;;1.95;;
78197;SDS011;67472;51.554;7.812;2023-04-03T16:55:34;2.45;;;1.30;;
78197;SDS011;67472;51.554;7.812;2023-04-03T16:58:20;5.93;;;1.30;;
78197;SDS011;67472;51.554;7.812;2023-04-03T17:01:12;1.42;;;1.27;;
78197;SDS011;67472;51.554;7.812;2023-04-03T17:03:59;4.93;;;1.40;;
78197;SDS011;67472;51.554;7.812;2023-04-03T17:06:44;3.42;;;1.30;;
78197;SDS011;67472;51.554;7.812;2023-04-03T17:09:29;2.90;;;1.52;;
78197;SDS011;67472;51.554;7.812;2023-04-03T17:12:15;2.90;;;1.40;;
78197;SDS011;67472;51.554;7.812;2023-04-03T17:15:00;3.03;;;1.30;;
78197;SDS011;67472;51.554;7.812;2023-04-03T17:17:48;1.90;;;1.10;;
78197;SDS011;67472;51.554;7.812;2023-04-03T17:20:36;5.68;;;4.05;;
78197;SDS011;67472;51.554;7.812;2023-04-03T17:23:23;4.95;;;2.67;;
78197;SDS011;67472;51.554;7.812;2023-04-03T17:26:09;1.75;;;1.20;;
78197;SDS011;67472;51.554;7.812;2023-04-03T17:28:54;4.05;;;1.60;;
78197;SDS011;67472;51.554;7.812;2023-04-03T17:31:40;3.28;;;1.13;;
78197;SDS011;67472;51.554;7.812;2023-04-03T17:34:25;4.65;;;1.20;;
78197;SDS011;67472;51.554;7.812;2023-04-03T17:37:10;3.90;;;1.60;;
78197;SDS011;67472;51.554;7.812;2023-04-03T17:39:55;3.50;;;1.92;;
78197;SDS011;67472;51.554;7.812;2023-04-03T17:42:40;2.75;;;1.40;;
78197;SDS011;67472;51.554;7.812;2023-04-03T17:45:25;5.97;;;1.45;;
78197;SDS011;67472;51.554;7.812;2023-04-03T17:48:10;3.72;;;1.90;;
78197;SDS011;67472;51.554;7.812;2023-04-03T17:50:55;2.78;;;1.52;;
78197;SDS011;67472;51.554;7.812;2023-04-03T17:53:41;4.25;;;1.40;;
78197;SDS011;67472;51.554;7.812;2023-04-03T17:56:27;4.38;;;1.50;;
78197;SDS011;67472;51.554;7.812;2023-04-03T17:59:13;4.07;;;1.40;;